Flight Track Log - Related Links

Times and Time Zones

All times are in EDT time to prevent confusion due to time zone crossing. See the DAL268 flight status page for this flight to view local times or setup timezone preferences in your user account.


Time Position Orientation Groundspeed Altitude Reporting Facility
EDT Latitude Longitude Course Direction KTS MPH feet Rate Location/Type
Sun 02:41:08 PM 37.6090 -122.3790 293° West 78 90  Level FlightAware ADS-B
Sun 02:41:28 PM 37.6200 -122.3720 27° Northeast 165 190 1,135 Level FlightAware ADS-B
Sun 02:41:45 PM 37.6320 -122.3640 28° Northeast 169 194 700 2,286 Climbing FlightAware ADS-B
Sun 02:41:49 PM 37.6349 -122.3610 39° Northeast 172 198 800 2,000 Climbing FlightAware ADS-B
Sun 02:41:57 PM 37.6397 -122.3550 45° Northeast 180 207 1,100 1,909 Climbing FlightAware ADS-B
Sun 02:42:11 PM 37.6473 -122.3450 46° Northeast 192 221 1,500 1,778 Climbing FlightAware ADS-B
Sun 02:42:24 PM 37.6556 -122.3330 49° Northeast 204 235 1,900 2,000 Climbing FlightAware ADS-B
Sun 02:42:38 PM 37.6648 -122.3220 43° Northeast 212 244 2,400 1,655 Climbing FlightAware ADS-B
Sun 02:42:53 PM 37.6767 -122.3070 45° Northeast 236 272 2,700 1,400 Climbing FlightAware ADS-B
Sun 02:43:08 PM 37.6894 -122.2930 41° Northeast 254 292 3,100 1,875 Climbing FlightAware ADS-B
Sun 02:43:25 PM 37.7044 -122.2760 42° Northeast 265 305 3,700 2,571 Climbing FlightAware ADS-B
Sun 02:43:43 PM 37.7215 -122.2580 40° Northeast 265 305 4,600 3,000 Climbing FlightAware ADS-B
Sun 02:43:59 PM 37.7364 -122.2410 42° Northeast 267 307 5,400 2,864 Climbing FlightAware ADS-B
Sun 02:44:27 PM 37.7620 -122.2110 43° Northeast 270 311 6,700 2,455 Climbing FlightAware ADS-B
Sun 02:44:43 PM 37.7762 -122.1940 43° Northeast 277 319 7,200 2,333 Climbing FlightAware ADS-B
Sun 02:45:03 PM 37.7963 -122.1710 42° Northeast 283 326 8,100 2,667 Climbing FlightAware ADS-B
Sun 02:45:19 PM 37.8112 -122.1540 42° Northeast 285 328 8,800 2,323 Climbing FlightAware ADS-B
Sun 02:45:34 PM 37.8264 -122.1370 41° Northeast 290 334 9,300 2,357 Climbing FlightAware ADS-B
Sun 02:45:47 PM 37.8390 -122.1230 41° Northeast 291 335 9,900 1,909 Climbing FlightAware ADS-B
Sun 02:46:18 PM 37.8707 -122.0850 43° Northeast 314 361 10,700 1,279 Climbing FlightAware ADS-B
Sun 02:46:48 PM 37.9045 -122.0440 44° Northeast 347 399 11,200 1,377 Climbing FlightAware ADS-B
Sun 02:47:19 PM 37.9402 -121.9990 45° Northeast 361 415 12,100 1,672 Climbing FlightAware ADS-B
Sun 02:47:49 PM 37.9777 -121.9520 45° Northeast 380 437 12,900 1,823 Climbing FlightAware ADS-B
Sun 02:48:38 PM 38.0412 -121.8760 43° Northeast 398 458 14,500 1,929 Climbing FlightAware ADS-B
Sun 02:49:41 PM 38.1300 -121.7800 40° Northeast 418 481 16,500 2,079 Climbing FlightAware ADS-B
Sun 02:50:19 PM 38.1880 -121.7200 39° Northeast 416 479 18,000 2,108 Climbing FlightAware ADS-B
Sun 02:50:55 PM 38.2400 -121.6630 41° Northeast 422 486 19,100 1,846 Climbing FlightAware ADS-B
Sun 02:51:24 PM 38.2770 -121.6080 49° Northeast 419 482 20,000 1,935 Climbing FlightAware ADS-B
Sun 02:51:57 PM 38.3090 -121.5370 60° Northeast 419 482 21,100 1,826 Climbing FlightAware ADS-B
Sun 02:52:33 PM 38.3410 -121.4640 61° Northeast 423 487 22,100 1,739 Climbing FlightAware ADS-B
Sun 02:53:06 PM 38.3750 -121.3870 61° Northeast 427 491 23,100 1,875 Climbing FlightAware ADS-B
Sun 02:53:37 PM 38.4054 -121.3190 60° Northeast 429 494 24,100 1,770 Climbing FlightAware ADS-B
Sun 02:54:07 PM 38.4354 -121.2520 60° Northeast 431 496 24,900 1,378 Climbing FlightAware ADS-B
Sun 02:54:51 PM 38.4780 -121.1570 60° Northeast 438 504 25,800 1,280 Climbing FlightAware ADS-B
Sun 02:55:22 PM 38.5097 -121.0850 61° Northeast 441 507 26,500 1,355 Climbing FlightAware ADS-B
Sun 02:55:53 PM 38.5408 -121.0140 61° Northeast 446 513 27,200 1,258 Climbing FlightAware ADS-B
Sun 02:56:24 PM 38.5721 -120.9430 61° Northeast 450 518 27,800 1,421 Climbing FlightAware ADS-B
Sun 02:57:09 PM 38.6180 -120.8390 61° Northeast 445 512 29,000 1,579 Climbing FlightAware ADS-B
Sun 02:57:21 PM 38.6307 -120.8100 61° Northeast 447 514 29,300 1,151 Climbing FlightAware ADS-B
Sun 02:58:22 PM 38.6890 -120.6760 61° Northeast 449 517 30,400 1,224 Climbing FlightAware ADS-B
Sun 02:58:59 PM 38.7290 -120.5840 61° Northeast 448 516 31,300 1,268 Climbing FlightAware ADS-B
Sun 02:59:33 PM 38.7610 -120.5120 60° Northeast 449 517 31,900 1,000 Climbing FlightAware ADS-B
Sun 03:00:05 PM 38.7940 -120.4350 61° Northeast 453 521 32,400 1,059 Climbing FlightAware ADS-B
Sun 03:00:41 PM 38.8320 -120.3470 61° Northeast 452 520 33,100 1,151 Climbing FlightAware ADS-B
Sun 03:01:18 PM 38.8690 -120.2620 61° Northeast 454 522 33,800 943 Climbing FlightAware ADS-B
Sun 03:01:51 PM 38.9020 -120.1840 61° Northeast 456 525 34,200 882 Climbing FlightAware ADS-B
Sun 03:02:26 PM 38.9380 -120.1010 61° Northeast 457 526 34,800 917 Climbing FlightAware ADS-B
Sun 03:03:03 PM 38.9770 -120.0110 61° Northeast 460 529 35,300 676 Climbing FlightAware ADS-B
Sun 03:03:37 PM 39.0110 -119.9310 61° Northeast 464 534 35,600 706 Climbing FlightAware ADS-B
Sun 03:04:11 PM 39.0470 -119.8470 61° Northeast 464 534 36,100 667 Climbing FlightAware ADS-B
Sun 03:04:49 PM 39.0870 -119.7530 61° Northeast 470 541 36,400 592 Climbing FlightAware ADS-B
Sun 03:05:22 PM 39.1200 -119.6750 61° Northeast 468 539 36,800 529 Climbing FlightAware ADS-B
Sun 03:05:57 PM 39.1570 -119.5880 61° Northeast 472 543 37,000 169 Climbing FlightAware ADS-B
Sun 03:06:33 PM 39.1940 -119.4980 62° Northeast 472 543 37,000  Level FlightAware ADS-B
Sun 03:07:05 PM 39.2260 -119.4220 61° Northeast 472 543 37,000  Level FlightAware ADS-B
Sun 03:07:41 PM 39.2650 -119.3310 61° Northeast 474 545 37,000  Level FlightAware ADS-B
Sun 03:08:17 PM 39.3030 -119.2400 62° Northeast 474 545 37,000  Level FlightAware ADS-B
Sun 03:08:49 PM 39.3350 -119.1610 62° Northeast 475 547 37,000  Level FlightAware ADS-B
Sun 03:09:25 PM 39.3720 -119.0720 62° Northeast 477 549 37,000  Level FlightAware ADS-B
Sun 03:10:01 PM 39.4100 -118.9810 62° Northeast 478 550 37,000  Level FlightAware ADS-B
Sun 03:10:39 PM 39.4500 -118.8840 62° Northeast 481 554 37,000  Level FlightAware ADS-B
Sun 03:11:09 PM 39.4790 -118.8130 62° Northeast 484 557 37,000  Level FlightAware ADS-B
Sun 03:11:47 PM 39.5220 -118.7100 62° Northeast 486 559 37,000  Level FlightAware ADS-B
Sun 03:12:23 PM 39.5590 -118.6190 62° Northeast 486 559 37,000  Level FlightAware ADS-B
Sun 03:12:57 PM 39.5950 -118.5320 62° Northeast 485 558 37,000  Level FlightAware ADS-B
Sun 03:13:33 PM 39.6330 -118.4380 62° Northeast 488 562 37,000  Level FlightAware ADS-B
Sun 03:14:09 PM 39.6700 -118.3460 62° Northeast 488 562 37,000  Level FlightAware ADS-B
Sun 03:14:49 PM 39.7120 -118.2420 62° Northeast 486 559 37,000  Level FlightAware ADS-B
Sun 03:15:21 PM 39.7460 -118.1590 62° Northeast 486 559 37,000  Level FlightAware ADS-B
Sun 03:15:57 PM 39.7830 -118.0660 63° Northeast 485 558 37,000  Level FlightAware ADS-B
Sun 03:16:30 PM 39.8170 -117.9820 62° Northeast 485 558 37,000  Level FlightAware ADS-B
Sun 03:17:05 PM 39.8530 -117.8910 63° Northeast 485 558 37,000  Level FlightAware ADS-B
Sun 03:17:41 PM 39.8900 -117.7980 63° Northeast 485 558 37,000  Level FlightAware ADS-B
Sun 03:18:19 PM 39.9280 -117.7020 63° Northeast 484 557 37,000  Level FlightAware ADS-B
Sun 03:18:43 PM 39.9530 -117.6390 63° Northeast 485 558 37,000  Level FlightAware ADS-B
Sun 03:19:24 PM 39.9930 -117.5400 62° Northeast 485 558 37,000  Level FlightAware ADS-B
Sun 03:20:00 PM 40.0250 -117.4610 62° Northeast 485 558 37,000  Level FlightAware ADS-B
Sun 03:20:37 PM 40.0580 -117.3800 62° Northeast 485 558 37,000  Level FlightAware ADS-B
Sun 03:21:14 PM 40.0910 -117.2980 62° Northeast 485 558 37,000  Level FlightAware ADS-B
Sun 03:21:52 PM 40.1250 -117.2150 62° Northeast 485 558 37,000  Level FlightAware ADS-B
Sun 03:22:26 PM 40.1560 -117.1400 62° Northeast 485 558 37,000  Level FlightAware ADS-B
Sun 03:23:03 PM 40.1890 -117.0580 62° Northeast 485 558 37,000  Level FlightAware ADS-B
Sun 03:23:39 PM 40.2210 -116.9790 62° Northeast 485 558 37,000  Level FlightAware ADS-B
Sun 03:24:15 PM 40.2530 -116.8990 62° Northeast 485 558 37,000  Level FlightAware ADS-B
Sun 03:24:51 PM 40.2860 -116.8200 61° Northeast 485 558 37,000  Level FlightAware ADS-B
Sun 03:25:28 PM 40.3190 -116.7380 62° Northeast 485 558 37,000  Level FlightAware ADS-B
Sun 03:26:06 PM 40.3530 -116.6540 62° Northeast 485 558 37,000  Level FlightAware ADS-B
Sun 03:26:42 PM 40.3850 -116.5750 62° Northeast 485 558 37,000  Level FlightAware ADS-B
Sun 03:27:20 PM 40.4190 -116.4910 62° Northeast 485 558 37,000  Level FlightAware ADS-B
Sun 03:27:54 PM 40.4490 -116.4150 63° Northeast 485 558 37,000  Level FlightAware ADS-B
Sun 03:28:30 PM 40.4820 -116.3360 61° Northeast 485 558 37,000  Level FlightAware ADS-B
Sun 03:28:40 PM 40.5600 -116.0650 69° East 489 563 37,000  Level FlightAware ADS-B
Sun 03:29:12 PM 40.5911 -115.9810 64° Northeast 490 564 37,000  Level FlightAware ADS-B
Sun 03:29:44 PM 40.6230 -115.8960 64° Northeast 490 564 37,000  Level FlightAware ADS-B
Sun 03:30:14 PM 40.6531 -115.8150 64° Northeast 491 565 37,000  Level FlightAware ADS-B
Sun 03:30:46 PM 40.6847 -115.7300 64° Northeast 491 565 37,000  Level FlightAware ADS-B
Sun 03:33:03 PM 40.8210 -115.3600 64° Northeast 493 567 37,000  Level FlightAware ADS-B
Sun 03:33:34 PM 40.8513 -115.2770 64° Northeast 494 568 37,000  Level FlightAware ADS-B
Sun 03:34:16 PM 40.8929 -115.1630 64° Northeast 495 570 37,000  Level FlightAware ADS-B
Sun 03:34:48 PM 40.9241 -115.0770 64° Northeast 496 571 37,000  Level FlightAware ADS-B
Sun 03:35:23 PM 40.9595 -114.9790 64° Northeast 495 570 37,000  Level FlightAware ADS-B
Sun 03:35:54 PM 40.9895 -114.8960 64° Northeast 495 570 37,000  Level FlightAware ADS-B
Sun 03:36:27 PM 41.0210 -114.8080 65° Northeast 496 571 37,000  Level FlightAware ADS-B
Sun 03:36:58 PM 41.0529 -114.7200 64° Northeast 496 571 37,000  Level FlightAware ADS-B
Sun 03:37:30 PM 41.0841 -114.6330 65° Northeast 497 572 37,000  Level FlightAware ADS-B
Sun 03:38:01 PM 41.1141 -114.5480 65° Northeast 496 571 37,000  Level FlightAware ADS-B
Sun 03:38:31 PM 41.1435 -114.4660 65° Northeast 497 572 37,000  Level FlightAware ADS-B
Sun 03:39:04 PM 41.1755 -114.3750 65° Northeast 497 572 37,000  Level FlightAware ADS-B
Sun 03:39:35 PM 41.2055 -114.2910 65° Northeast 497 572 37,000  Level FlightAware ADS-B
Sun 03:40:05 PM 41.2349 -114.2070 65° Northeast 497 572 37,000  Level FlightAware ADS-B
Sun 03:40:35 PM 41.2640 -114.1240 65° Northeast 497 572 37,000  Level FlightAware ADS-B
Sun 03:41:05 PM 41.2935 -114.0400 65° Northeast 498 573 37,000  Level FlightAware ADS-B
Sun 03:41:36 PM 41.3226 -113.9570 65° Northeast 498 573 37,000  Level FlightAware ADS-B
Sun 03:41:55 PM 41.3411 -113.9030 65° Northeast 498 573 37,000  Level FlightAware ADS-B
Sun 03:42:11 PM 41.3556 -113.8560 68° East 499 574 37,000  Level FlightAware ADS-B
Sun 03:42:23 PM 41.3644 -113.8210 71° East 499 574 37,000  Level FlightAware ADS-B
Sun 03:42:36 PM 41.3716 -113.7830 76° East 498 573 37,000  Level FlightAware ADS-B
Sun 03:43:07 PM 41.3838 -113.6920 80° East 497 572 37,000  Level FlightAware ADS-B
Sun 03:43:38 PM 41.3949 -113.5970 81° East 497 572 37,000  Level FlightAware ADS-B
Sun 03:44:08 PM 41.4058 -113.5060 81° East 497 572 37,000  Level FlightAware ADS-B
Sun 03:44:47 PM 41.4200 -113.3920 81° East 496 571 37,000  Level FlightAware ADS-B
Sun 03:45:06 PM 41.4273 -113.3330 81° East 497 572 37,000  Level FlightAware ADS-B
Sun 03:45:36 PM 41.4388 -113.2420 80° East 498 573 37,000  Level FlightAware ADS-B
Sun 03:46:06 PM 41.4502 -113.1510 80° East 498 573 37,000  Level FlightAware ADS-B
Sun 03:46:46 PM 41.4651 -113.0320 80° East 498 573 37,000  Level FlightAware ADS-B
Sun 03:47:24 PM 41.4794 -112.9160 81° East 497 572 37,000  Level FlightAware ADS-B
Sun 03:47:55 PM 41.4911 -112.8210 81° East 498 573 37,000  Level FlightAware ADS-B
Sun 03:48:26 PM 41.5021 -112.7300 81° East 498 573 37,000  Level FlightAware ADS-B
Sun 03:48:57 PM 41.5136 -112.6340 81° East 498 573 37,000  Level FlightAware ADS-B
Sun 03:49:28 PM 41.5245 -112.5410 81° East 498 573 37,000  Level FlightAware ADS-B
Sun 03:49:59 PM 41.5357 -112.4460 81° East 499 574 37,000  Level FlightAware ADS-B
Sun 03:50:32 PM 41.5462 -112.3460 82° East 499 574 37,000  Level FlightAware ADS-B
Sun 03:51:03 PM 41.5558 -112.2520 82° East 499 574 37,000  Level FlightAware ADS-B
Sun 03:51:34 PM 41.5656 -112.1570 82° East 499 574 37,000  Level FlightAware ADS-B
Sun 03:52:06 PM 41.5755 -112.0620 82° East 499 574 37,000  Level FlightAware ADS-B
Sun 03:52:45 PM 41.5878 -111.9420 82° East 500 575 37,000  Level FlightAware ADS-B
Sun 03:53:15 PM 41.5972 -111.8490 82° East 501 577 37,000  Level FlightAware ADS-B
Sun 03:53:52 PM 41.6086 -111.7370 82° East 501 577 37,000  Level FlightAware ADS-B
Sun 03:54:23 PM 41.6180 -111.6430 82° East 501 577 37,000  Level FlightAware ADS-B
Sun 03:54:53 PM 41.6272 -111.5500 82° East 502 578 37,000  Level FlightAware ADS-B
Sun 03:55:23 PM 41.6363 -111.4580 82° East 503 579 37,000  Level FlightAware ADS-B
Sun 03:55:54 PM 41.6455 -111.3630 83° East 503 579 37,000  Level FlightAware ADS-B
Sun 03:56:24 PM 41.6545 -111.2690 83° East 503 579 37,000  Level FlightAware ADS-B
Sun 03:56:55 PM 41.6634 -111.1760 83° East 504 580 37,000  Level FlightAware ADS-B
Sun 03:57:26 PM 41.6726 -111.0800 83° East 505 581 37,000  Level FlightAware ADS-B
Sun 03:57:56 PM 41.6813 -110.9860 83° East 505 581 37,000  Level FlightAware ADS-B
Sun 03:58:27 PM 41.6903 -110.8900 83° East 506 582 37,000  Level FlightAware ADS-B
Sun 03:59:03 PM 41.7003 -110.7800 83° East 506 582 37,000  Level FlightAware ADS-B
Sun 03:59:33 PM 41.7088 -110.6870 83° East 506 582 37,000  Level FlightAware ADS-B
Sun 04:00:52 PM 41.7286 -110.4731 83° East 509 586 37,000  Level Salt Lake Center
Sun 04:01:54 PM 41.7461 -110.2658 83° East 505 581 37,000  Level Salt Lake Center
Sun 04:02:56 PM 41.7614 -110.0867 83° East 506 582 37,000  Level Salt Lake Center
Sun 04:03:58 PM 41.7797 -109.8769 83° East 506 582 37,000  Level Salt Lake Center
Sun 04:05:00 PM 41.7942 -109.6961 84° East 507 583 37,000  Level Salt Lake Center
Sun 04:06:02 PM 41.8117 -109.4842 84° East 510 587 37,000  Level Salt Lake Center
Sun 04:07:04 PM 41.8264 -109.3025 84° East 509 586 37,000  Level Salt Lake Center
Sun 04:08:06 PM 41.8408 -109.1186 84° East 513 590 37,000  Level Salt Lake Center
Sun 04:09:08 PM 41.8567 -108.9050 84° East 513 590 37,000  Level Salt Lake Center
Sun 04:10:10 PM 41.8708 -108.7214 84° East 514 592 37,000  Level Salt Lake Center
Sun 04:11:12 PM 41.8856 -108.5067 85° East 516 594 37,000  Level Salt Lake Center
Sun 04:12:14 PM 41.9014 -108.3258 83° East 512 589 37,000  Level Salt Lake Center
Sun 04:13:16 PM 41.9153 -108.1117 85° East 515 593 37,000  Level Salt Lake Center
Sun 04:14:18 PM 41.9244 -107.9253 86° East 523 602 37,000  Level Salt Lake Center
Sun 04:15:20 PM 41.9386 -107.7119 85° East 516 594 37,000  Level Salt Lake Center
Sun 04:16:22 PM 41.9503 -107.5317 85° East 510 587 37,000  Level Salt Lake Center
Sun 04:22:22 PM 42.0170 -106.3780 85° East 514 592 37,000  Level FlightAware ADS-B
Sun 04:22:56 PM 42.0230 -106.2650 86° East 513 590 37,000  Level FlightAware ADS-B
Sun 04:23:30 PM 42.0290 -106.1580 86° East 514 592 37,000  Level FlightAware ADS-B
Sun 04:24:02 PM 42.0340 -106.0540 86° East 514 592 37,000  Level FlightAware ADS-B
Sun 04:24:41 PM 42.0400 -105.9330 86° East 514 592 37,000  Level FlightAware ADS-B
Sun 04:25:16 PM 42.0450 -105.8210 87° East 515 593 37,000  Level FlightAware ADS-B
Sun 04:25:58 PM 42.0510 -105.7090 86° East 516 594 37,000  Level FlightAware ADS-B
Sun 04:26:42 PM 42.0580 -105.5620 86° East 515 593 37,000  Level FlightAware ADS-B
Sun 04:27:36 PM 42.0660 -105.3740 87° East 516 594 37,000  Level FlightAware ADS-B
Sun 04:28:14 PM 42.0710 -105.2510 87° East 516 594 37,000  Level FlightAware ADS-B
Sun 04:28:44 PM 42.0760 -105.1550 86° East 515 593 37,000  Level FlightAware ADS-B
Sun 04:29:12 PM 42.0833 -105.0660 84° East 515 593 37,000  Level FlightAware ADS-B
Sun 04:29:43 PM 42.0919 -104.9670 83° East 515 593 37,000  Level FlightAware ADS-B
Sun 04:30:13 PM 42.1004 -104.8710 83° East 515 593 37,000  Level FlightAware ADS-B
Sun 04:30:45 PM 42.1092 -104.7690 83° East 515 593 37,000  Level FlightAware ADS-B
Sun 04:31:15 PM 42.1176 -104.6730 83° East 515 593 37,000  Level FlightAware ADS-B
Sun 04:31:45 PM 42.1257 -104.5780 83° East 515 593 37,000  Level FlightAware ADS-B
Sun 04:32:18 PM 42.1346 -104.4730 83° East 515 593 37,000  Level FlightAware ADS-B
Sun 04:32:48 PM 42.1425 -104.3770 84° East 515 593 37,000  Level FlightAware ADS-B
Sun 04:33:21 PM 42.1510 -104.2740 84° East 515 593 37,000  Level FlightAware ADS-B
Sun 04:33:52 PM 42.1591 -104.1760 84° East 514 592 37,000  Level FlightAware ADS-B
Sun 04:34:22 PM 42.1669 -104.0790 84° East 514 592 37,000  Level FlightAware ADS-B
Sun 04:34:53 PM 42.1746 -103.9820 84° East 514 592 37,000  Level FlightAware ADS-B
Sun 04:35:30 PM 42.1838 -103.8650 84° East 512 589 37,000  Level FlightAware ADS-B
Sun 04:36:00 PM 42.1912 -103.7700 84° East 511 588 37,000  Level FlightAware ADS-B
Sun 04:36:30 PM 42.1986 -103.6740 84° East 511 588 37,000  Level FlightAware ADS-B
Sun 04:37:01 PM 42.2059 -103.5770 84° East 511 588 37,000  Level FlightAware ADS-B
Sun 04:37:31 PM 42.2131 -103.4820 84° East 511 588 37,000  Level FlightAware ADS-B
Sun 04:38:01 PM 42.2203 -103.3860 84° East 509 586 37,000  Level FlightAware ADS-B
Sun 04:38:32 PM 42.2274 -103.2900 84° East 509 586 37,000  Level FlightAware ADS-B
Sun 04:39:03 PM 42.2344 -103.1930 84° East 509 586 37,000  Level FlightAware ADS-B
Sun 04:39:33 PM 42.2413 -103.0970 84° East 508 585 37,000  Level FlightAware ADS-B
Sun 04:40:03 PM 42.2481 -103.0020 84° East 508 585 37,000  Level FlightAware ADS-B
Sun 04:40:33 PM 42.2547 -102.9070 85° East 508 585 37,000  Level FlightAware ADS-B
Sun 04:41:04 PM 42.2613 -102.8110 85° East 508 585 37,000  Level FlightAware ADS-B
Sun 04:41:38 PM 42.2688 -102.7020 85° East 508 585 37,000  Level FlightAware ADS-B
Sun 04:42:10 PM 42.2755 -102.6020 85° East 508 585 37,000  Level FlightAware ADS-B
Sun 04:42:49 PM 42.2836 -102.4810 85° East 508 585 37,000  Level FlightAware ADS-B
Sun 04:43:27 PM 42.2915 -102.3610 85° East 507 583 37,000  Level FlightAware ADS-B
Sun 04:44:09 PM 42.3000 -102.2280 85° East 506 582 37,000  Level FlightAware ADS-B
Sun 04:45:01 PM 42.3102 -102.0670 85° East 506 582 37,000  Level FlightAware ADS-B
Sun 04:45:45 PM 42.3186 -101.9356 85° East 506 582 37,000  Level Denver Center
Sun 04:46:47 PM 42.3289 -101.7658 85° East 503 579 37,000  Level Denver Center
Sun 04:47:49 PM 42.3417 -101.5564 85° East 501 577 37,000  Level Denver Center
Sun 04:48:51 PM 42.3514 -101.3778 86° East 498 573 37,000  Level Denver Center
Sun 04:49:53 PM 42.3631 -101.1692 86° East 497 572 37,000  Level Denver Center
Sun 04:50:56 PM 42.3722 -100.9933 86° East 490 564 37,000  Level Denver Center
Sun 04:51:58 PM 42.3822 -100.7856 86° East 495 570 37,000  Level Denver Center
Sun 04:52:59 PM 42.3900 -100.6400 86° East 491 565 37,000  Level Denver Center
Sun 04:54:02 PM 42.4019 -100.4044 86° East 490 564 37,000  Level Denver Center
Sun 04:55:04 PM 42.4108 -100.2286 86° East 489 563 37,000  Level Denver Center
Sun 04:56:06 PM 42.4194 -100.0250 87° East 486 559 37,000  Level Denver Center
Sun 04:57:08 PM 42.4267 -99.8517 87° East 484 557 37,000  Level Denver Center
Sun 04:58:10 PM 42.4336 -99.6772 87° East 479 551 37,000  Level Denver Center
Sun 04:58:42 PM 42.4378 -99.5689 87° East 483 556 37,000  Level Minneapolis Center
Sun 04:59:44 PM 42.4458 -99.3878 86° East 482 555 37,000  Level Minneapolis Center
Sun 05:00:14 PM 42.4481 -99.3153 88° East 478 550 37,000  Level Denver Center
Sun 05:01:16 PM 42.4569 -99.0975 87° East 478 550 37,000  Level Denver Center
Sun 05:01:48 PM 42.4600 -99.0258 87° East 481 554 37,000 128 Level Minneapolis Center
Sun 05:02:50 PM 42.4658 -98.8472 87° East 476 548 37,200 624 Climbing Minneapolis Center
Sun 05:03:53 PM 42.4739 -98.6311 87° East 477 549 38,300 768 Climbing Minneapolis Center
Sun 05:04:55 PM 42.4831 -98.4511 86° East 478 550 38,800 107 Climbing Minneapolis Center
Sun 05:10:25 PM 42.5390 -97.4600 86° East 475 547 39,000 33 Climbing FlightAware ADS-B
Sun 05:10:55 PM 42.5430 -97.3780 86° East 475 547 39,000  Level FlightAware ADS-B
Sun 05:11:42 PM 42.5510 -97.2300 86° East 475 547 39,000  Level FlightAware ADS-B
Sun 05:12:19 PM 42.5560 -97.1190 86° East 476 548 39,000  Level FlightAware ADS-B
Sun 05:12:52 PM 42.5620 -97.0190 85° East 477 549 39,000  Level FlightAware ADS-B
Sun 05:13:25 PM 42.5660 -96.9260 87° East 477 549 39,000  Level FlightAware ADS-B
Sun 05:14:00 PM 42.5710 -96.8170 86° East 476 548 39,000  Level FlightAware ADS-B
Sun 05:14:36 PM 42.5760 -96.7110 86° East 475 547 39,000  Level FlightAware ADS-B
Sun 05:15:14 PM 42.5820 -96.5980 86° East 473 544 39,000  Level FlightAware ADS-B
Sun 05:15:47 PM 42.5860 -96.5060 87° East 473 544 39,000  Level FlightAware ADS-B
Sun 05:16:22 PM 42.5910 -96.4010 86° East 471 542 39,000  Level FlightAware ADS-B
Sun 05:16:58 PM 42.5950 -96.2950 87° East 470 541 39,000  Level FlightAware ADS-B
Sun 05:17:34 PM 42.6000 -96.1860 86° East 469 540 39,000  Level FlightAware ADS-B
Sun 05:18:06 PM 42.6040 -96.0960 87° East 469 540 39,000  Level FlightAware ADS-B
Sun 05:18:44 PM 42.6090 -95.9810 87° East 468 539 39,000  Level FlightAware ADS-B
Sun 05:19:17 PM 42.6130 -95.8850 87° East 468 539 39,000  Level FlightAware ADS-B
Sun 05:19:53 PM 42.6170 -95.7840 87° East 467 537 39,000  Level FlightAware ADS-B
Sun 05:20:26 PM 42.6200 -95.6820 88° East 467 537 39,000  Level FlightAware ADS-B
Sun 05:21:02 PM 42.6240 -95.5790 87° East 467 537 39,000  Level FlightAware ADS-B
Sun 05:21:35 PM 42.6280 -95.4820 87° East 466 536 39,000  Level FlightAware ADS-B
Sun 05:22:12 PM 42.6320 -95.3750 87° East 466 536 39,000  Level FlightAware ADS-B
Sun 05:22:38 PM 42.6340 -95.2970 88° East 467 537 39,000  Level FlightAware ADS-B
Sun 05:23:14 PM 42.6380 -95.1930 87° East 467 537 39,000  Level FlightAware ADS-B
Sun 05:23:52 PM 42.6420 -95.0810 87° East 468 539 39,000  Level FlightAware ADS-B
Sun 05:24:24 PM 42.6450 -94.9870 87° East 468 539 39,000  Level FlightAware ADS-B
Sun 05:25:00 PM 42.6480 -94.8800 88° East 469 540 39,000  Level FlightAware ADS-B
Sun 05:25:36 PM 42.6510 -94.7780 88° East 469 540 39,000  Level FlightAware ADS-B
Sun 05:26:09 PM 42.6540 -94.6800 88° East 470 541 39,000  Level FlightAware ADS-B
Sun 05:26:44 PM 42.6570 -94.5740 88° East 470 541 39,000  Level FlightAware ADS-B
Sun 05:27:22 PM 42.6600 -94.4640 88° East 471 542 39,000  Level FlightAware ADS-B
Sun 05:27:56 PM 42.6630 -94.3640 88° East 471 542 39,000  Level FlightAware ADS-B
Sun 05:28:30 PM 42.6660 -94.2630 88° East 470 541 39,000  Level FlightAware ADS-B
Sun 05:29:08 PM 42.6690 -94.1510 88° East 469 540 39,000  Level FlightAware ADS-B
Sun 05:29:40 PM 42.6710 -94.0570 88° East 468 539 39,000  Level FlightAware ADS-B
Sun 05:30:12 PM 42.6730 -93.9670 88° East 468 539 39,000  Level FlightAware ADS-B
Sun 05:30:52 PM 42.6760 -93.8450 88° East 468 539 39,000  Level FlightAware ADS-B
Sun 05:31:28 PM 42.6780 -93.7440 88° East 467 537 39,000  Level FlightAware ADS-B
Sun 05:32:00 PM 42.6800 -93.6460 88° East 467 537 39,000  Level FlightAware ADS-B
Sun 05:32:36 PM 42.6820 -93.5420 88° East 466 536 39,000  Level FlightAware ADS-B
Sun 05:33:10 PM 42.6840 -93.4450 88° East 465 535 39,000  Level FlightAware ADS-B
Sun 05:33:44 PM 42.6860 -93.3440 88° East 465 535 39,000  Level FlightAware ADS-B
Sun 05:34:18 PM 42.6870 -93.2470 89° East 465 535 39,000  Level FlightAware ADS-B
Sun 05:34:56 PM 42.6890 -93.1350 89° East 465 535 39,000  Level FlightAware ADS-B
Sun 05:35:28 PM 42.6910 -93.0420 88° East 465 535 39,000  Level FlightAware ADS-B
Sun 05:36:08 PM 42.6890 -92.9380 91° East 469 540 39,000  Level FlightAware ADS-B
Sun 05:36:40 PM 42.6630 -92.8410 110° East 477 549 39,000  Level FlightAware ADS-B
Sun 05:36:55 PM 42.6420 -92.8020 126° Southeast 479 551 39,000  Level FlightAware ADS-B
Sun 05:37:28 PM 42.5880 -92.7400 140° Southeast 484 557 39,000  Level FlightAware ADS-B
Sun 05:38:02 PM 42.5190 -92.7000 157° South 485 558 39,000  Level FlightAware ADS-B
Sun 05:38:35 PM 42.4550 -92.6500 150° Southeast 483 556 39,000  Level FlightAware ADS-B
Sun 05:38:54 PM 42.4270 -92.6070 131° Southeast 479 551 39,000  Level FlightAware ADS-B
Sun 05:39:22 PM 42.4030 -92.5290 113° Southeast 469 540 39,000  Level FlightAware ADS-B
Sun 05:39:59 PM 42.4020 -92.4260 91° East 460 529 39,000  Level FlightAware ADS-B
Sun 05:40:30 PM 42.4060 -92.3350 87° East 459 528 39,000  Level FlightAware ADS-B
Sun 05:41:06 PM 42.4100 -92.2330 87° East 459 528 39,000  Level FlightAware ADS-B
Sun 05:41:42 PM 42.4140 -92.1260 87° East 458 527 39,000  Level FlightAware ADS-B
Sun 05:42:15 PM 42.4180 -92.0320 87° East 458 527 39,000  Level FlightAware ADS-B
Sun 05:42:54 PM 42.4220 -91.9190 87° East 458 527 39,000  Level FlightAware ADS-B
Sun 05:43:26 PM 42.4250 -91.8280 87° East 458 527 39,000  Level FlightAware ADS-B
Sun 05:44:01 PM 42.4280 -91.7290 88° East 458 527 39,000  Level FlightAware ADS-B
Sun 05:44:38 PM 42.4320 -91.6230 87° East 459 528 39,000  Level FlightAware ADS-B
Sun 05:45:10 PM 42.4350 -91.5330 87° East 459 528 39,000  Level FlightAware ADS-B
Sun 05:45:46 PM 42.4380 -91.4280 88° East 459 528 39,000  Level FlightAware ADS-B
Sun 05:46:19 PM 42.4410 -91.3350 87° East 459 528 39,000  Level FlightAware ADS-B
Sun 05:46:56 PM 42.4440 -91.2330 88° East 459 528 39,000  Level FlightAware ADS-B
Sun 05:47:32 PM 42.4470 -91.1250 88° East 457 526 39,000  Level FlightAware ADS-B
Sun 05:48:04 PM 42.4500 -91.0320 87° East 456 525 39,000  Level FlightAware ADS-B
Sun 05:48:42 PM 42.4530 -90.9270 88° East 455 524 39,000  Level FlightAware ADS-B
Sun 05:49:12 PM 42.4550 -90.8480 88° East 455 524 39,000  Level FlightAware ADS-B
Sun 05:49:58 PM 42.4580 -90.7160 88° East 454 522 39,000  Level FlightAware ADS-B
Sun 05:50:34 PM 42.4610 -90.6130 88° East 453 521 39,000  Level FlightAware ADS-B
Sun 05:51:08 PM 42.4630 -90.5170 88° East 453 521 39,000  Level FlightAware ADS-B
Sun 05:51:44 PM 42.4660 -90.4100 88° East 454 522 39,000  Level FlightAware ADS-B
Sun 05:52:16 PM 42.4670 -90.3250 89° East 454 522 39,000  Level FlightAware ADS-B
Sun 05:52:56 PM 42.4700 -90.2120 88° East 455 524 39,000  Level FlightAware ADS-B
Sun 05:53:28 PM 42.4720 -90.1220 88° East 456 525 39,000  Level FlightAware ADS-B
Sun 05:54:04 PM 42.4740 -90.0180 88° East 457 526 39,000  Level FlightAware ADS-B
Sun 05:54:38 PM 42.4760 -89.9150 88° East 457 526 39,000  Level FlightAware ADS-B
Sun 05:55:14 PM 42.4770 -89.8130 89° East 456 525 39,000  Level FlightAware ADS-B
Sun 05:55:55 PM 42.4790 -89.7000 89° East 455 524 39,000  Level FlightAware ADS-B
Sun 05:56:32 PM 42.4810 -89.5910 89° East 454 522 39,000  Level FlightAware ADS-B
Sun 05:57:04 PM 42.4820 -89.5010 89° East 453 521 39,000  Level FlightAware ADS-B
Sun 05:57:38 PM 42.4840 -89.4030 88° East 453 521 39,000  Level FlightAware ADS-B
Sun 05:58:16 PM 42.4850 -89.2970 89° East 453 521 39,000  Level FlightAware ADS-B
Sun 05:58:52 PM 42.4860 -89.1950 89° East 454 522 39,000  Level FlightAware ADS-B
Sun 05:59:28 PM 42.4870 -89.0940 89° East 454 522 39,000  Level FlightAware ADS-B
Sun 06:00:00 PM 42.4880 -89.0020 89° East 455 524 39,000  Level FlightAware ADS-B
Sun 06:00:34 PM 42.4890 -88.9060 89° East 455 524 39,000  Level FlightAware ADS-B
Sun 06:01:09 PM 42.4900 -88.8090 89° East 456 525 39,000  Level FlightAware ADS-B
Sun 06:01:46 PM 42.4910 -88.7000 89° East 457 526 39,000  Level FlightAware ADS-B
Sun 06:02:20 PM 42.4920 -88.6040 89° East 458 527 39,000  Level FlightAware ADS-B
Sun 06:02:54 PM 42.4920 -88.5050 90° East 458 527 39,000  Level FlightAware ADS-B
Sun 06:03:32 PM 42.4930 -88.3970 89° East 459 528 39,000  Level FlightAware ADS-B
Sun 06:04:04 PM 42.4930 -88.3060 90° East 460 529 39,000  Level FlightAware ADS-B
Sun 06:04:40 PM 42.4940 -88.2020 89° East 460 529 39,000  Level FlightAware ADS-B
Sun 06:05:17 PM 42.4940 -88.0990 90° East 460 529 39,000  Level FlightAware ADS-B
Sun 06:05:50 PM 42.4940 -88.0040 90° East 460 529 39,000  Level FlightAware ADS-B
Sun 06:06:23 PM 42.4940 -87.9110 90° East 460 529 39,000  Level FlightAware ADS-B
Sun 06:07:03 PM 42.4940 -87.7890 90° East 460 529 39,000  Level FlightAware ADS-B
Sun 06:07:35 PM 42.4940 -87.7000 90° East 461 531 39,000  Level FlightAware ADS-B
Sun 06:08:11 PM 42.4940 -87.5970 90° East 460 529 39,000  Level FlightAware ADS-B
Sun 06:08:47 PM 42.4940 -87.4950 90° East 460 529 39,000  Level FlightAware ADS-B
Sun 06:09:19 PM 42.4930 -87.4000 91° East 460 529 39,000  Level FlightAware ADS-B
Sun 06:09:55 PM 42.4930 -87.2970 90° East 460 529 39,000  Level FlightAware ADS-B
Sun 06:10:29 PM 42.4930 -87.2000 90° East 460 529 39,000  Level FlightAware ADS-B
Sun 06:11:05 PM 42.4920 -87.0960 91° East 460 529 39,000  Level FlightAware ADS-B
Sun 06:11:41 PM 42.4910 -86.9950 91° East 459 528 39,000  Level FlightAware ADS-B
Sun 06:12:15 PM 42.4900 -86.8980 91° East 459 528 39,000  Level FlightAware ADS-B
Sun 06:12:48 PM 42.4900 -86.8010 90° East 458 527 39,000  Level FlightAware ADS-B
Sun 06:13:20 PM 42.4890 -86.7120 91° East 456 525 39,000  Level FlightAware ADS-B
Sun 06:14:02 PM 42.4870 -86.5910 91° East 454 522 39,000  Level FlightAware ADS-B
Sun 06:14:34 PM 42.4870 -86.5010 90° East 454 522 39,000  Level FlightAware ADS-B
Sun 06:15:08 PM 42.4850 -86.4050 92° East 454 522 39,000  Level FlightAware ADS-B
Sun 06:15:46 PM 42.4840 -86.2970 91° East 453 521 39,000  Level FlightAware ADS-B
Sun 06:16:19 PM 42.4830 -86.2050 91° East 454 522 39,000  Level FlightAware ADS-B
Sun 06:16:53 PM 42.4810 -86.1080 92° East 455 524 39,000  Level FlightAware ADS-B
Sun 06:17:33 PM 42.4790 -85.9980 91° East 456 525 39,000  Level FlightAware ADS-B
Sun 06:18:05 PM 42.4780 -85.9050 91° East 458 527 39,000  Level FlightAware ADS-B
Sun 06:18:41 PM 42.4760 -85.8040 92° East 460 529 39,000  Level FlightAware ADS-B
Sun 06:19:11 PM 42.4750 -85.7150 91° East 460 529 39,000  Level FlightAware ADS-B
Sun 06:19:51 PM 42.4720 -85.5940 92° East 461 531 39,000  Level FlightAware ADS-B
Sun 06:20:27 PM 42.4700 -85.4920 91° East 461 531 39,000  Level FlightAware ADS-B
Sun 06:20:59 PM 42.4680 -85.4050 92° East 461 531 39,000  Level FlightAware ADS-B
Sun 06:21:35 PM 42.4660 -85.2970 91° East 462 532 39,000  Level FlightAware ADS-B
Sun 06:22:11 PM 42.4640 -85.1910 91° East 463 533 39,000  Level FlightAware ADS-B
Sun 06:22:43 PM 42.4620 -85.1000 92° East 463 533 39,000  Level FlightAware ADS-B
Sun 06:23:20 PM 42.4590 -84.9990 92° East 464 534 39,000  Level FlightAware ADS-B
Sun 06:23:53 PM 42.4570 -84.9040 92° East 465 535 39,000  Level FlightAware ADS-B
Sun 06:24:29 PM 42.4540 -84.7930 92° East 466 536 39,000  Level FlightAware ADS-B
Sun 06:25:07 PM 42.4510 -84.6860 92° East 467 537 39,000  Level FlightAware ADS-B
Sun 06:25:43 PM 42.4480 -84.5770 92° East 468 539 39,000  Level FlightAware ADS-B
Sun 06:26:13 PM 42.4450 -84.4880 93° East 469 540 39,000  Level FlightAware ADS-B
Sun 06:26:51 PM 42.4420 -84.3790 92° East 470 541 39,000  Level FlightAware ADS-B
Sun 06:27:27 PM 42.4390 -84.2760 92° East 472 543 39,000  Level FlightAware ADS-B
Sun 06:27:59 PM 42.4360 -84.1780 92° East 473 544 39,000  Level FlightAware ADS-B
Sun 06:28:42 PM 42.4320 -84.0500 92° East 474 545 39,000  Level FlightAware ADS-B
Sun 06:29:16 PM 42.4280 -83.9510 93° East 475 547 39,000  Level FlightAware ADS-B
Sun 06:29:52 PM 42.4240 -83.8410 93° East 478 550 39,000  Level FlightAware ADS-B
Sun 06:30:28 PM 42.4210 -83.7340 92° East 479 551 39,000  Level FlightAware ADS-B
Sun 06:31:04 PM 42.4170 -83.6260 93° East 481 554 39,000  Level FlightAware ADS-B
Sun 06:31:36 PM 42.4130 -83.5300 93° East 482 555 39,000  Level FlightAware ADS-B
Sun 06:32:12 PM 42.4090 -83.4210 93° East 482 555 39,000  Level FlightAware ADS-B
Sun 06:32:46 PM 42.4050 -83.3210 93° East 483 556 39,000  Level FlightAware ADS-B
Sun 06:33:25 PM 42.4000 -83.2020 93° East 485 558 39,000  Level FlightAware ADS-B
Sun 06:33:57 PM 42.3970 -83.1110 93° East 486 559 39,000  Level FlightAware ADS-B
Sun 06:34:34 PM 42.3920 -82.9930 93° East 487 560 39,000  Level FlightAware ADS-B
Sun 06:35:06 PM 42.3880 -82.9000 93° East 487 560 39,000  Level FlightAware ADS-B
Sun 06:35:42 PM 42.3830 -82.7860 93° East 488 562 39,000  Level FlightAware ADS-B
Sun 06:36:16 PM 42.3780 -82.6810 94° East 490 564 39,000  Level FlightAware ADS-B
Sun 06:36:55 PM 42.3740 -82.5650 93° East 492 566 39,000  Level FlightAware ADS-B
Sun 06:37:26 PM 42.3700 -82.4680 93° East 493 567 39,000  Level FlightAware ADS-B
Sun 06:38:04 PM 42.3650 -82.3490 93° East 495 570 39,000  Level FlightAware ADS-B
Sun 06:38:36 PM 42.3610 -82.2500 93° East 497 572 39,000  Level FlightAware ADS-B
Sun 06:39:08 PM 42.3570 -82.1530 93° East 498 573 39,000  Level FlightAware ADS-B
Sun 06:39:46 PM 42.3520 -82.0380 93° East 502 578 39,000  Level FlightAware ADS-B
Sun 06:40:20 PM 42.3480 -81.9380 93° East 504 580 39,000  Level FlightAware ADS-B
Sun 06:40:56 PM 42.3430 -81.8250 93° East 507 583 39,000  Level FlightAware ADS-B
Sun 06:41:31 PM 42.3370 -81.7070 94° East 512 589 39,000  Level FlightAware ADS-B
Sun 06:42:06 PM 42.3320 -81.5980 94° East 516 594 39,000  Level FlightAware ADS-B
Sun 06:42:38 PM 42.3280 -81.5080 93° East 519 597 39,000  Level FlightAware ADS-B
Sun 06:43:16 PM 42.3220 -81.3870 94° East 523 602 39,000  Level FlightAware ADS-B
Sun 06:43:50 PM 42.3170 -81.2770 93° East 525 604 39,000  Level FlightAware ADS-B
Sun 06:44:29 PM 42.3090 -81.1290 94° East 528 608 39,000  Level FlightAware ADS-B
Sun 06:45:11 PM 42.3020 -80.9910 94° East 531 611 39,000  Level FlightAware ADS-B
Sun 06:45:43 PM 42.2960 -80.8830 94° East 533 613 39,000  Level FlightAware ADS-B
Sun 06:46:20 PM 42.2900 -80.7600 94° East 534 615 39,000  Level FlightAware ADS-B
Sun 06:46:52 PM 42.2840 -80.6550 94° East 532 612 39,000  Level FlightAware ADS-B
Sun 06:47:26 PM 42.2730 -80.5460 98° East 528 608 39,000  Level FlightAware ADS-B
Sun 06:48:04 PM 42.2560 -80.4210 100° East 525 604 39,000  Level FlightAware ADS-B
Sun 06:48:34 PM 42.2410 -80.3270 102° East 525 604 39,000  Level FlightAware ADS-B
Sun 06:49:11 PM 42.2260 -80.2290 102° East 524 603 39,000  Level FlightAware ADS-B
Sun 06:49:50 PM 42.2060 -80.1050 102° East 525 604 39,000  Level FlightAware ADS-B
Sun 06:50:33 PM 42.1840 -79.9700 102° East 526 605 39,000  Level FlightAware ADS-B
Sun 06:51:07 PM 42.1650 -79.8600 103° East 526 605 39,000  Level FlightAware ADS-B
Sun 06:51:43 PM 42.1450 -79.7370 102° East 528 608 39,000  Level FlightAware ADS-B
Sun 06:52:25 PM 42.1240 -79.6130 103° East 529 609 39,000  Level FlightAware ADS-B
Sun 06:52:57 PM 42.1030 -79.4930 103° East 529 609 39,000  Level FlightAware ADS-B
Sun 06:53:33 PM 42.0860 -79.3910 103° East 528 608 39,000  Level FlightAware ADS-B
Sun 06:54:09 PM 42.0670 -79.2800 103° East 528 608 39,000  Level FlightAware ADS-B
Sun 06:54:50 PM 42.0450 -79.1530 103° East 528 608 39,000  Level FlightAware ADS-B
Sun 06:55:24 PM 42.0200 -79.0110 103° East 527 606 39,000  Level FlightAware ADS-B
Sun 06:56:00 PM 42.0010 -78.9000 103° East 528 608 39,000  Level FlightAware ADS-B
Sun 06:56:32 PM 41.9820 -78.7960 104° East 529 609 39,000  Level FlightAware ADS-B
Sun 06:57:12 PM 41.9600 -78.6690 103° East 529 609 39,000  Level FlightAware ADS-B
Sun 06:57:44 PM 41.9410 -78.5650 104° East 529 609 39,000  Level FlightAware ADS-B
Sun 06:58:20 PM 41.9220 -78.4550 103° East 529 609 39,000  Level FlightAware ADS-B
Sun 06:58:52 PM 41.9030 -78.3510 104° East 530 610 39,000  Level FlightAware ADS-B
Sun 06:59:30 PM 41.8800 -78.2270 104° East 531 611 39,000  Level FlightAware ADS-B
Sun 07:00:06 PM 41.8600 -78.1140 103° East 532 612 39,000  Level FlightAware ADS-B
Sun 07:00:42 PM 41.8390 -77.9990 104° East 532 612 39,000  Level FlightAware ADS-B
Sun 07:01:18 PM 41.8170 -77.8840 104° East 533 613 39,000  Level FlightAware ADS-B
Sun 07:01:50 PM 41.7980 -77.7820 104° East 533 613 39,000  Level FlightAware ADS-B
Sun 07:02:26 PM 41.7770 -77.6650 103° East 533 613 39,000  Level FlightAware ADS-B
Sun 07:03:02 PM 41.7550 -77.5530 105° East 533 613 39,000  Level FlightAware ADS-B
Sun 07:03:34 PM 41.7360 -77.4510 104° East 531 611 39,000  Level FlightAware ADS-B
Sun 07:04:08 PM 41.7150 -77.3420 104° East 530 610 39,000  Level FlightAware ADS-B
Sun 07:04:46 PM 41.6920 -77.2230 104° East 529 609 39,000  Level FlightAware ADS-B
Sun 07:05:17 PM 41.6705 -77.1239 106° East 528 608 39,000  Level FlightAware ADS-B
Sun 07:05:49 PM 41.6446 -77.0242 109° East 525 604 39,000  Level FlightAware ADS-B
Sun 07:06:21 PM 41.6186 -76.9284 110° East 524 603 39,000  Level FlightAware ADS-B
Sun 07:06:58 PM 41.5878 -76.8157 110° East 525 604 39,000  Level FlightAware ADS-B
Sun 07:07:28 PM 41.5626 -76.7243 110° East 525 604 39,000  Level FlightAware ADS-B
Sun 07:08:03 PM 41.5335 -76.6185 110° East 526 605 39,000 -441 Level FlightAware ADS-B
Sun 07:08:36 PM 41.5053 -76.5165 110° East 527 606 38,500 -1,108 Descending FlightAware ADS-B
Sun 07:09:08 PM 41.4787 -76.4205 110° East 530 610 37,800 -1,161 Descending FlightAware ADS-B
Sun 07:09:38 PM 41.4534 -76.3293 110° East 526 605 37,300 -1,000 Descending FlightAware ADS-B
Sun 07:10:08 PM 41.4278 -76.2376 110° East 524 603 36,800 -1,048 Descending FlightAware ADS-B
Sun 07:10:41 PM 41.4002 -76.1392 110° East 522 601 36,200 -1,714 Descending FlightAware ADS-B
Sun 07:11:11 PM 41.3744 -76.0475 111° Southeast 523 602 35,000 -2,571 Descending FlightAware ADS-B
Sun 07:11:51 PM 41.3408 -75.9286 111° Southeast 523 602 33,200 -2,704 Descending FlightAware ADS-B
Sun 07:12:22 PM 41.3138 -75.8334 111° Southeast 522 601 31,800 -2,762 Descending FlightAware ADS-B
Sun 07:12:54 PM 41.2871 -75.7398 111° Southeast 520 598 30,300 -2,906 Descending FlightAware ADS-B
Sun 07:13:26 PM 41.2580 -75.6451 112° Southeast 517 595 28,700 -3,143 Descending FlightAware ADS-B
Sun 07:13:57 PM 41.2280 -75.5543 114° Southeast 517 595 27,000 -3,387 Descending FlightAware ADS-B
Sun 07:14:28 PM 41.1981 -75.4648 114° Southeast 515 593 25,200 -3,148 Descending FlightAware ADS-B
Sun 07:14:58 PM 41.1693 -75.3791 114° Southeast 502 578 23,800 -2,032 Descending FlightAware ADS-B
Sun 07:15:30 PM 41.1397 -75.2915 114° Southeast 497 572 23,100 -774 Descending FlightAware ADS-B
Sun 07:16:00 PM 41.1114 -75.2081 114° Southeast 492 566 23,000 -98 Descending FlightAware ADS-B
Sun 07:16:31 PM 41.0825 -75.1227 114° Southeast 491 565 23,000 -590 Level FlightAware ADS-B
Sun 07:17:01 PM 41.0545 -75.0405 114° Southeast 479 551 22,400 -1,143 Descending FlightAware ADS-B
Sun 07:17:34 PM 41.0262 -74.9569 114° Southeast 454 522 21,800 -1,059 Descending FlightAware ADS-B
Sun 07:17:52 PM 41.0108 -74.9110 114° Southeast 438 504 21,500 -1,200 Descending FlightAware ADS-B
Sun 07:18:14 PM 40.9969 -74.8561 109° East 433 498 21,000 -1,929 Descending FlightAware ADS-B
Sun 07:18:48 PM 40.9841 -74.7666 101° East 434 499 19,700 -1,791 Descending FlightAware ADS-B
Sun 07:19:21 PM 40.9749 -74.6807 98° East 435 501 19,000 -667 Descending FlightAware ADS-B
Sun 07:19:51 PM 40.9667 -74.6012 98° East 436 502 19,000  Level FlightAware ADS-B
Sun 07:20:22 PM 40.9580 -74.5203 98° East 428 493 19,000  Level FlightAware ADS-B
Sun 07:20:53 PM 40.9496 -74.4433 98° East 397 457 19,000  Level FlightAware ADS-B
Sun 07:21:23 PM 40.9420 -74.3745 98° East 368 423 19,000  Level FlightAware ADS-B
Sun 07:21:54 PM 40.9345 -74.3079 98° East 360 414 19,000  Level FlightAware ADS-B
Sun 07:22:27 PM 40.9263 -74.2358 99° East 360 414 19,000  Level FlightAware ADS-B
Sun 07:22:57 PM 40.9159 -74.1710 102° East 359 413 19,000  Level FlightAware ADS-B
Sun 07:23:28 PM 40.9037 -74.1058 104° East 360 414 19,000  Level FlightAware ADS-B
Sun 07:23:38 PM 40.8996 -74.0842 104° East 360 414 19,000 -563 Level FlightAware ADS-B
Sun 07:24:00 PM 40.8907 -74.0363 104° East 357 411 18,700 -938 Descending FlightAware ADS-B
Sun 07:24:10 PM 40.8867 -74.0154 104° East 356 410 18,500 -1,125 Descending FlightAware ADS-B
Sun 07:24:16 PM 40.8840 -74.0041 108° East 354 407 18,400 -1,286 Descending FlightAware ADS-B
Sun 07:24:24 PM 40.8786 -73.9884 114° Southeast 352 405 18,200 -1,421 Descending FlightAware ADS-B
Sun 07:24:54 PM 40.8515 -73.9342 123° Southeast 348 400 17,500 -1,500 Descending FlightAware ADS-B
Sun 07:25:16 PM 40.8309 -73.8957 125° Southeast 347 399 16,900 -1,688 Descending FlightAware ADS-B
Sun 07:25:26 PM 40.8223 -73.8798 126° Southeast 348 400 16,600 -1,429 Descending FlightAware ADS-B
Sun 07:25:58 PM 40.7916 -73.8234 126° Southeast 345 397 15,900 -1,241 Descending FlightAware ADS-B
Sun 07:26:24 PM 40.7675 -73.7803 126° Southeast 340 391 15,400 -1,200 Descending FlightAware ADS-B
Sun 07:26:33 PM 40.7588 -73.7648 127° Southeast 339 390 15,200 -1,269 Descending FlightAware ADS-B
Sun 07:27:16 PM 40.7210 -73.6970 126° Southeast 334 384 14,300 -1,377 Descending FlightAware ADS-B
Sun 07:27:34 PM 40.7029 -73.6643 126° Southeast 334 384 13,800 -1,400 Descending FlightAware ADS-B
Sun 07:28:16 PM 40.6916 -73.5831 100° East 331 381 12,900 -1,154 Descending FlightAware ADS-B
Sun 07:28:26 PM 40.6924 -73.5646 87° East 329 379 12,800 -146 Descending FlightAware ADS-B
Sun 07:28:57 PM 40.6945 -73.5011 87° East 331 381 12,800 -476 Level FlightAware ADS-B
Sun 07:29:29 PM 40.6840 -73.4410 103° East 326 375 12,300 -1,171 Descending FlightAware ADS-B
Sun 07:29:38 PM 40.6747 -73.4268 131° Southeast 323 372 12,000 -2,195 Descending FlightAware ADS-B
Sun 07:30:10 PM 40.6333 -73.4062 159° South 309 356 10,800 -2,308 Descending FlightAware ADS-B
Sun 07:30:17 PM 40.6239 -73.4079 188° South 299 344 10,500 -2,526 Descending FlightAware ADS-B
Sun 07:30:29 PM 40.6082 -73.4169 204° Southwest 291 335 10,000 -2,211 Descending FlightAware ADS-B
Sun 07:30:36 PM 40.6007 -73.4241 216° Southwest 285 328 9,800 -2,182 Descending FlightAware ADS-B
Sun 07:30:51 PM 40.5867 -73.4408 222° Southwest 283 326 9,200 -2,625 Descending FlightAware ADS-B
Sun 07:31:08 PM 40.5711 -73.4611 225° Southwest 284 327 8,400 -2,553 Descending FlightAware ADS-B
Sun 07:31:38 PM 40.5432 -73.4984 225° Southwest 289 333 7,200 -2,000 Descending FlightAware ADS-B
Sun 07:31:53 PM 40.5267 -73.5144 216° Southwest 291 335 6,900 -889 Descending FlightAware ADS-B
Sun 07:32:05 PM 40.5121 -73.5240 207° Southwest 289 333 6,800 -857 Descending FlightAware ADS-B
Sun 07:32:21 PM 40.4931 -73.5356 205° Southwest 285 328 6,500 -1,500 Descending FlightAware ADS-B
Sun 07:32:37 PM 40.4748 -73.5468 205° Southwest 280 322 6,000 -2,400 Descending FlightAware ADS-B
Sun 07:32:56 PM 40.4514 -73.5613 205° Southwest 281 323 5,100 -2,344 Descending FlightAware ADS-B
Sun 07:33:41 PM 40.3990 -73.5960 207° Southwest 284 327 3,500 -1,247 Descending FlightAware ADS-B
Sun 07:34:13 PM 40.3670 -73.6170 207° Southwest 284 327 3,500 -977 Level FlightAware ADS-B
Sun 07:34:24 PM 40.3560 -73.6390 237° Southwest 275 316 2,800 -2,471 Descending FlightAware ADS-B
Sun 07:34:30 PM 40.3540 -73.6480 254° West 269 310 2,800  Level FlightAware ADS-B
Sun 07:34:43 PM 40.3500 -73.6690 256° West 255 293 2,800  Level FlightAware ADS-B
Sun 07:35:07 PM 40.3440 -73.7010 256° West 237 273 2,800  Level FlightAware ADS-B
Sun 07:35:16 PM 40.3430 -73.7150 265° West 227 261 2,800  Level FlightAware ADS-B
Sun 07:35:39 PM 40.3440 -73.7430 273° West 213 245 2,800  Level FlightAware ADS-B
Sun 07:36:00 PM 40.3460 -73.7680 276° West 200 230 2,800  Level FlightAware ADS-B
Sun 07:36:23 PM 40.3470 -73.7960 273° West 196 226 2,800  Level FlightAware ADS-B
Sun 07:36:43 PM 40.3480 -73.8220 273° West 198 228 2,800 -143 Level FlightAware ADS-B
Sun 07:37:05 PM 40.3520 -73.8460 282° West 191 220 2,700 -571 Descending FlightAware ADS-B
Sun 07:37:25 PM 40.3560 -73.8700 282° West 190 219 2,400 -1,050 Descending FlightAware ADS-B
Sun 07:37:45 PM 40.3600 -73.8920 283° West 192 221 2,000 -1,000 Descending FlightAware ADS-B
Sun 07:38:01 PM 40.3650 -73.9080 292° West 190 219 1,800 -500 Descending FlightAware ADS-B
Sun 07:38:09 PM 40.3700 -73.9150 313° West 185 213 1,800  Level FlightAware ADS-B
Sun 07:38:21 PM 40.3800 -73.9180 347° North 182 209 1,800  Level FlightAware ADS-B
Sun 07:38:41 PM 40.3970 -73.9170 North 184 212 1,800  Level FlightAware ADS-B
Sun 07:39:03 PM 40.4150 -73.9140 North 181 208 1,800  Level FlightAware ADS-B
Sun 07:39:27 PM 40.4340 -73.9110 North 181 208 1,800  Level FlightAware ADS-B
Sun 07:39:43 PM 40.4480 -73.9050 18° North 179 206 1,800  Level FlightAware ADS-B
Sun 07:40:08 PM 40.4670 -73.8940 24° Northeast 178 205 1,800  Level FlightAware ADS-B
Sun 07:40:26 PM 40.4780 -73.8860 29° Northeast 171 197 1,800  Level FlightAware ADS-B
Sun 07:40:48 PM 40.4940 -73.8730 32° Northeast 166 191 1,800  Level FlightAware ADS-B
Sun 07:41:08 PM 40.5070 -73.8630 30° Northeast 168 193 1,800  Level FlightAware ADS-B
Sun 07:41:33 PM 40.5240 -73.8490 32° Northeast 161 185 1,800 -133 Level FlightAware ADS-B
Sun 07:41:53 PM 40.5370 -73.8390 30° Northeast 149 171 1,700 -154 Descending FlightAware ADS-B
Sun 07:42:12 PM 40.5470 -73.8300 34° Northeast 149 171 1,700 -600 Level FlightAware ADS-B
Sun 07:42:33 PM 40.5600 -73.8200 30° Northeast 142 163 1,300 -977 Descending FlightAware ADS-B
Sun 07:42:55 PM 40.5720 -73.8110 30° Northeast 142 163 1,000 -698 Descending FlightAware ADS-B
Sun 07:43:16 PM 40.5840 -73.8020 30° Northeast 143 165 800 -732 Descending FlightAware ADS-B
Sun 07:43:36 PM 40.5960 -73.7940 27° Northeast 140 161 500 -750 Descending FlightAware ADS-B
Sun 07:43:56 PM 40.6070 -73.7850 32° Northeast 138 159 300 -600 Descending FlightAware ADS-B
Sun 07:44:16 PM 40.6180 -73.7760 32° Northeast 139 160 -900 Descending FlightAware ADS-B
Sun 07:44:42 PM 40.6320 -73.7660 28° Northeast 128 147  Level FlightAware ADS-B

Login

Don't have an account? Register now (free) for customized features, flight alerts, and more!